Time;durP1;ratioP1;P1;durP2;ratioP2;P2;SDS_P1;SDS_P2;PMS_P1;PMS_P2;Temp;Humidity;BMP_temperature;BMP_pressure;BME280_temperature;BME280_humidity;BME280_pressure;Samples;Min_cycle;Max_cycle;Signal;HPM_P1;HPM_P2
2023/10/02 00:05:06;;;;;;;24.45;14.40;;;17.40;99.90;;;;;;5070319;28;20051;-60
2023/10/02 00:07:36;;;;;;;21.42;13.30;;;17.50;99.90;;;;;;5070517;28;20120;-60
2023/10/02 00:10:03;;;;;;;26.75;14.07;;;17.50;99.90;;;;;;5071233;28;20033;-60
2023/10/02 00:12:31;;;;;;;24.70;14.30;;;17.50;99.90;;;;;;5053369;28;20036;-60
2023/10/02 00:14:58;;;;;;;21.80;13.35;;;17.40;99.90;;;;;;5071686;28;20076;-60
2023/10/02 00:17:24;;;;;;;23.17;12.65;;;17.40;99.90;;;;;;5070623;28;20554;-60
2023/10/02 00:19:59;;;;;;;27.55;14.90;;;17.40;99.90;;;;;;5051189;28;20049;-60
2023/10/02 00:22:34;;;;;;;19.80;13.73;;;17.50;99.90;;;;;;5051349;28;20059;-60
2023/10/02 00:25:19;;;;;;;25.90;15.40;;;17.40;99.90;;;;;;5067000;28;20048;-60
2023/10/02 00:27:50;;;;;;;25.98;15.90;;;17.30;99.90;;;;;;5051121;28;20048;-60
2023/10/02 00:30:16;;;;;;;26.20;14.65;;;17.30;99.90;;;;;;5052363;28;20059;-60
2023/10/02 00:32:45;;;;;;;23.92;14.00;;;17.40;99.90;;;;;;5054718;28;20045;-60
2023/10/02 00:35:12;;;;;;;23.40;12.90;;;17.30;99.90;;;;;;5053697;28;20045;-60
2023/10/02 00:37:44;;;;;;;24.02;14.75;;;17.30;99.90;;;;;;5052674;28;20048;-60
2023/10/02 00:40:30;;;;;;;27.52;16.48;;;17.30;99.90;;;;;;5053365;28;20040;-60
2023/10/02 00:43:33;;;;;;;22.05;14.43;;;17.30;99.90;;;;;;5037440;28;20091;-60
2023/10/02 00:45:49;;;;;;;25.60;13.43;;;17.20;99.90;;;;;;5054752;28;20134;-60
2023/10/02 00:48:28;;;;;;;29.45;15.75;;;17.10;99.90;;;;;;5072838;28;20044;-60
2023/10/02 00:51:06;;;;;;;24.67;14.38;;;17.10;99.90;;;;;;5056072;28;20146;-60
2023/10/02 00:53:48;;;;;;;23.42;13.45;;;17.00;99.90;;;;;;5072322;28;20109;-60
2023/10/02 00:56:28;;;;;;;22.67;13.90;;;17.00;99.90;;;;;;5073125;28;20060;-60
2023/10/02 00:59:00;;;;;;;22.27;13.73;;;17.00;99.90;;;;;;5053973;28;20128;-60
2023/10/02 01:01:26;;;;;;;23.88;13.57;;;17.00;99.90;;;;;;5052887;28;20090;-60
2023/10/02 01:04:11;;;;;;;24.75;14.15;;;16.90;99.90;;;;;;5052941;28;20037;-60
2023/10/02 01:09:33;;;;;;;22.80;12.98;;;17.00;99.90;;;;;;5053769;28;20044;-60
2023/10/02 01:11:59;;;;;;;21.23;13.48;;;16.90;99.90;;;;;;5052774;28;20084;-60
2023/10/02 01:17:16;;;;;;;25.50;15.35;;;16.90;99.90;;;;;;5052678;28;20052;-60
2023/10/02 01:19:53;;;;;;;25.58;14.57;;;16.90;99.90;;;;;;5056797;28;20048;-60
2023/10/02 01:22:38;;;;;;;21.65;14.10;;;16.90;99.90;;;;;;5072274;28;20129;-60
2023/10/02 01:25:14;;;;;;;25.25;15.75;;;16.80;99.90;;;;;;5073240;28;20045;-60
2023/10/02 01:27:47;;;;;;;26.05;15.02;;;16.80;99.90;;;;;;5071753;28;20048;-60
2023/10/02 01:30:24;;;;;;;23.45;14.05;;;16.80;99.90;;;;;;5072493;28;20086;-60
2023/10/02 01:35:40;;;;;;;23.65;16.27;;;16.80;99.90;;;;;;5072218;28;20048;-60
2023/10/02 01:38:15;;;;;;;29.15;16.00;;;16.70;99.90;;;;;;5072808;28;20048;-60
2023/10/02 01:40:45;;;;;;;22.80;15.25;;;16.70;99.90;;;;;;5071495;28;20044;-60
2023/10/02 01:43:12;;;;;;;24.60;16.65;;;16.80;99.90;;;;;;5038738;28;20044;-60
2023/10/02 01:45:42;;;;;;;31.98;18.58;;;16.80;99.90;;;;;;5054335;28;20493;-60
2023/10/02 01:48:14;;;;;;;26.65;16.85;;;16.70;99.90;;;;;;5051647;28;20048;-59
2023/10/02 01:50:43;;;;;;;25.45;16.75;;;16.70;99.90;;;;;;5058584;28;20545;-60
2023/10/02 01:53:28;;;;;;;26.50;16.15;;;16.80;99.90;;;;;;5073547;28;20045;-59
2023/10/02 01:56:00;;;;;;;;;;;16.80;99.90;;;;;;5072176;28;20568;-60
2023/10/02 01:58:29;;;;;;;30.75;17.83;;;16.80;99.90;;;;;;5071915;28;20284;-60
2023/10/02 02:00:57;;;;;;;28.45;17.67;;;16.70;99.90;;;;;;5071918;28;20047;-60
2023/10/02 02:03:27;;;;;;;25.17;17.33;;;16.70;99.90;;;;;;5071761;28;20158;-60
2023/10/02 02:05:53;;;;;;;26.83;18.10;;;16.70;99.90;;;;;;5071775;28;20040;-60
2023/10/02 02:08:24;;;;;;;29.50;18.98;;;16.70;99.90;;;;;;5070599;28;20123;-59
2023/10/02 02:11:16;;;;;;;27.75;17.67;;;16.60;99.90;;;;;;5056952;28;20119;-60
2023/10/02 02:13:50;;;;;;;30.13;19.40;;;16.60;99.90;;;;;;5050713;28;20052;-60
2023/10/02 02:16:33;;;;;;;29.35;19.10;;;16.60;99.90;;;;;;5051318;28;20045;-60
2023/10/02 02:19:07;;;;;;;30.55;19.33;;;16.60;99.90;;;;;;5051607;28;20123;-60
2023/10/02 02:21:33;;;;;;;27.33;16.83;;;16.60;99.90;;;;;;5051684;28;20120;-60
2023/10/02 02:24:11;;;;;;;30.52;18.75;;;16.60;99.90;;;;;;5051143;28;20106;-60
2023/10/02 02:26:39;;;;;;;30.42;19.08;;;16.50;99.90;;;;;;5051589;28;20044;-60
2023/10/02 02:29:23;;;;;;;32.03;19.13;;;16.70;99.90;;;;;;5084707;28;20076;-60
2023/10/02 02:32:11;;;;;;;30.80;19.42;;;16.50;99.90;;;;;;5052227;28;20098;-60
2023/10/02 02:34:36;;;;;;;31.88;18.70;;;16.70;99.90;;;;;;5056107;28;20036;-60
2023/10/02 02:37:04;;;;;;;28.60;19.13;;;16.50;99.90;;;;;;5072396;28;20112;-60
2023/10/02 02:39:30;;;;;;;28.25;18.92;;;16.60;99.90;;;;;;5070711;28;20056;-60
2023/10/02 02:44:56;;;;;;;31.33;18.95;;;16.60;99.90;;;;;;4987894;28;20077;-60
2023/10/02 02:47:22;;;;;;;30.88;21.15;;;16.60;99.90;;;;;;5030945;28;20076;-62
2023/10/02 02:49:52;;;;;;;34.40;20.27;;;16.50;99.90;;;;;;5055395;28;20052;-60
2023/10/02 02:52:33;;;;;;;34.08;20.33;;;16.50;99.90;;;;;;5070525;28;20044;-60
2023/10/02 02:55:05;;;;;;;23.92;16.92;;;16.50;99.90;;;;;;5072400;28;20048;-60
2023/10/02 02:57:32;;;;;;;31.63;19.52;;;16.40;99.90;;;;;;5070032;28;20539;-60
2023/10/02 03:02:52;;;;;;;30.08;18.67;;;16.40;99.90;;;;;;5070535;28;20501;-60
2023/10/02 03:05:22;;;;;;;30.42;20.00;;;16.30;99.90;;;;;;5069752;28;20078;-60
2023/10/02 03:07:54;;;;;;;34.95;19.75;;;16.40;99.90;;;;;;5070659;28;20066;-60
2023/10/02 03:10:20;;;;;;;28.63;19.70;;;16.40;99.90;;;;;;5069755;28;20037;-60
2023/10/02 03:12:48;;;;;;;35.83;19.90;;;16.30;99.90;;;;;;5049864;28;20398;-60
2023/10/02 03:15:17;;;;;;;33.80;20.15;;;16.40;99.90;;;;;;5050611;28;20041;-60
2023/10/02 03:17:49;;;;;;;33.17;20.63;;;16.20;99.90;;;;;;5050445;28;20052;-60
2023/10/02 03:20:24;;;;;;;32.10;20.08;;;16.30;99.90;;;;;;5050158;28;20053;-60
2023/10/02 03:22:55;;;;;;;33.65;21.95;;;16.20;99.90;;;;;;5061918;28;20046;-60
2023/10/02 03:25:28;;;;;;;35.47;22.85;;;16.20;99.90;;;;;;5070070;28;20041;-60
2023/10/02 03:27:57;;;;;;;38.92;24.75;;;16.30;99.90;;;;;;5070833;28;20072;-60
2023/10/02 03:30:35;;;;;;;33.40;22.65;;;16.20;99.90;;;;;;5070249;28;20053;-60
2023/10/02 03:33:17;;;;;;;34.95;23.63;;;16.30;99.90;;;;;;5068703;28;20500;-60
2023/10/02 03:35:56;;;;;;;34.50;21.50;;;16.30;99.90;;;;;;5050410;28;20041;-61
2023/10/02 03:38:23;;;;;;;39.40;24.70;;;16.30;99.90;;;;;;5050461;28;20121;-61
2023/10/02 03:40:54;;;;;;;35.70;23.00;;;16.20;99.90;;;;;;5049999;28;20044;-60
2023/10/02 03:43:33;;;;;;;42.28;22.67;;;16.30;99.90;;;;;;5051690;28;20033;-60
2023/10/02 03:46:06;;;;;;;34.58;19.98;;;16.20;99.90;;;;;;5034075;28;20044;-60
2023/10/02 03:48:36;;;;;;;34.33;21.58;;;16.20;99.90;;;;;;5049822;28;20060;-60
2023/10/02 03:51:06;;;;;;;38.03;21.63;;;16.30;99.90;;;;;;5050216;28;20053;-60
2023/10/02 03:53:34;;;;;;;41.60;24.52;;;16.10;99.90;;;;;;5050118;28;20045;-60
2023/10/02 03:58:51;;;;;;;37.70;23.02;;;16.20;99.90;;;;;;5050277;28;20044;-60
2023/10/02 04:01:29;;;;;;;38.17;23.92;;;16.10;99.90;;;;;;5051015;28;20116;-60
2023/10/02 04:06:42;;;;;;;33.40;23.00;;;16.20;99.90;;;;;;5087795;28;20044;-60
2023/10/02 04:11:36;;;;;;;36.15;22.88;;;16.20;99.90;;;;;;5055047;28;20049;-59
2023/10/02 04:14:02;;;;;;;40.47;26.50;;;16.10;99.90;;;;;;5054255;28;20489;-60
2023/10/02 04:16:28;;;;;;;38.88;25.58;;;16.20;99.90;;;;;;5053466;28;20078;-60
2023/10/02 04:19:01;;;;;;;46.67;26.27;;;16.20;99.90;;;;;;5055169;28;20060;-60
2023/10/02 04:21:28;;;;;;;34.60;22.95;;;16.20;99.90;;;;;;5054143;28;20048;-60
2023/10/02 04:23:56;;;;;;;36.15;21.95;;;16.30;99.90;;;;;;5073449;28;20076;-60
2023/10/02 04:26:24;;;;;;;40.03;23.70;;;16.30;99.90;;;;;;5073553;28;20044;-60
2023/10/02 04:28:54;;;;;;;38.17;23.35;;;16.20;99.90;;;;;;5074389;28;20044;-60
2023/10/02 04:31:21;;;;;;;38.58;25.25;;;16.10;99.90;;;;;;5073342;28;20173;-60
2023/10/02 04:36:34;;;;;;;38.75;25.33;;;16.10;99.90;;;;;;5072902;28;20185;-60
2023/10/02 04:39:04;;;;;;;34.65;22.33;;;16.10;99.90;;;;;;5073520;28;20044;-60
2023/10/02 04:41:37;;;;;;;35.83;24.42;;;16.20;99.90;;;;;;5072776;28;20052;-60
2023/10/02 04:44:04;;;;;;;33.97;22.38;;;16.10;99.90;;;;;;5074398;28;20040;-59
2023/10/02 04:46:34;;;;;;;37.65;24.08;;;16.10;99.90;;;;;;5056234;28;20087;-62
2023/10/02 04:49:00;;;;;;;34.92;24.38;;;16.10;99.90;;;;;;5074563;28;20397;-62
2023/10/02 04:51:30;;;;;;;35.20;22.67;;;16.00;99.90;;;;;;5072828;28;20052;-62
2023/10/02 04:53:57;;;;;;;40.58;25.38;;;16.00;99.90;;;;;;5073617;28;20048;-62
2023/10/02 04:56:24;;;;;;;37.38;24.13;;;15.90;99.90;;;;;;5072532;28;20131;-62
2023/10/02 04:58:51;;;;;;;39.55;24.25;;;15.90;99.90;;;;;;5067314;28;20409;-62
2023/10/02 05:01:41;;;;;;;33.88;22.40;;;16.00;99.90;;;;;;5054633;28;20110;-62
2023/10/02 05:04:08;;;;;;;36.95;24.30;;;15.90;99.90;;;;;;5057191;28;20048;-63
2023/10/02 05:06:52;;;;;;;39.30;23.77;;;15.80;99.90;;;;;;5056787;28;20037;-62
2023/10/02 05:09:25;;;;;;;33.70;22.73;;;15.80;99.90;;;;;;5054361;28;20383;-62
2023/10/02 05:11:57;;;;;;;37.17;22.63;;;15.70;99.90;;;;;;5052320;28;20045;-62
2023/10/02 05:14:29;;;;;;;33.97;23.00;;;15.80;99.90;;;;;;5052681;28;20044;-62
2023/10/02 05:20:02;;;;;;;36.20;21.40;;;15.70;99.90;;;;;;5036494;28;20044;-62
2023/10/02 05:22:30;;;;;;;36.25;24.92;;;15.60;99.90;;;;;;5053837;28;20410;-62
2023/10/02 05:24:59;;;;;;;35.55;21.75;;;15.60;99.90;;;;;;5048449;28;20045;-62
2023/10/02 05:27:30;;;;;;;37.15;21.38;;;15.70;99.90;;;;;;5073665;28;20413;-62
2023/10/02 05:30:00;;;;;;;31.65;20.08;;;15.70;99.90;;;;;;5073011;28;20054;-62
2023/10/02 05:32:31;;;;;;;36.05;22.85;;;15.60;99.90;;;;;;5072379;28;20374;-62
2023/10/02 05:37:40;;;;;;;33.10;21.77;;;15.50;99.90;;;;;;5050657;28;20083;-62
2023/10/02 05:40:37;;;;;;;30.83;20.80;;;15.60;99.90;;;;;;5084439;28;20033;-62
2023/10/02 05:50:52;;;;;;;36.33;23.00;;;15.50;99.90;;;;;;5076781;28;20064;-62
2023/10/02 05:53:34;;;;;;;32.22;19.67;;;15.50;99.90;;;;;;5053281;28;20892;-62
2023/10/02 05:58:36;;;;;;;32.42;19.90;;;15.50;99.90;;;;;;5046928;28;20480;-62
2023/10/02 06:01:05;;;;;;;29.98;18.65;;;15.60;99.90;;;;;;5073243;28;20037;-61
2023/10/02 06:03:35;;;;;;;30.20;20.13;;;15.60;99.90;;;;;;5047213;28;20041;-62
2023/10/02 06:06:17;;;;;;;32.33;20.42;;;15.60;99.90;;;;;;5075848;28;20124;-62
2023/10/02 06:09:01;;;;;;;33.70;20.65;;;15.70;99.90;;;;;;5072200;28;20056;-62
2023/10/02 06:11:27;;;;;;;33.65;20.67;;;15.70;99.90;;;;;;5048482;28;20063;-62
2023/10/02 06:13:57;;;;;;;35.22;20.67;;;15.70;99.90;;;;;;5060058;28;20048;-61
2023/10/02 06:16:29;;;;;;;30.50;20.67;;;15.60;99.90;;;;;;5053442;28;20041;-62
2023/10/02 06:19:02;;;;;;;27.23;17.52;;;15.70;99.90;;;;;;5048399;28;20045;-62
2023/10/02 06:21:30;;;;;;;29.50;18.30;;;15.70;99.90;;;;;;5049453;28;20048;-62
2023/10/02 06:23:56;;;;;;;34.85;20.40;;;15.60;99.90;;;;;;5058499;28;20393;-62
2023/10/02 06:26:29;;;;;;;34.28;21.63;;;15.60;99.90;;;;;;5052303;28;20044;-62
2023/10/02 06:29:16;;;;;;;27.90;17.73;;;15.70;99.90;;;;;;5050791;28;20058;-61
2023/10/02 06:31:42;;;;;;;32.60;19.52;;;15.70;99.90;;;;;;5039636;28;20048;-62
2023/10/02 06:34:11;;;;;;;38.58;23.05;;;15.60;99.90;;;;;;5064735;28;20043;-62
2023/10/02 06:37:02;;;;;;;31.58;19.85;;;15.70;99.90;;;;;;5068732;28;20482;-62
2023/10/02 06:39:29;;;;;;;29.65;19.23;;;15.70;99.90;;;;;;5063379;28;20048;-62
2023/10/02 06:42:03;;;;;;;32.97;18.13;;;15.80;99.90;;;;;;5062086;28;20044;-62
2023/10/02 06:44:37;;;;;;;;;;;15.80;99.90;;;;;;5063597;28;20128;-62
2023/10/02 06:47:04;;;;;;;28.17;18.05;;;15.80;99.90;;;;;;5049262;28;19970;-62
2023/10/02 06:49:33;;;;;;;31.98;18.75;;;15.80;99.90;;;;;;5046766;28;20079;-62
2023/10/02 06:52:11;;;;;;;31.15;21.65;;;15.90;99.90;;;;;;5047699;28;20048;-62
2023/10/02 06:54:42;;;;;;;29.63;18.48;;;15.90;99.90;;;;;;5055384;28;20435;-62
2023/10/02 06:57:13;;;;;;;30.92;19.90;;;15.80;99.90;;;;;;5050222;28;20049;-62
2023/10/02 06:59:51;;;;;;;31.40;18.40;;;15.80;99.90;;;;;;5045538;28;20060;-62
2023/10/02 07:02:25;;;;;;;32.35;19.38;;;15.90;99.90;;;;;;5047726;28;20512;-62
2023/10/02 07:04:53;;;;;;;38.03;21.70;;;15.90;99.90;;;;;;5055177;28;20041;-62
2023/10/02 07:07:26;;;;;;;28.48;19.35;;;16.00;99.90;;;;;;5052015;28;20293;-62
2023/10/02 07:09:54;;;;;;;33.75;20.05;;;16.00;99.90;;;;;;5061779;28;20328;-62
2023/10/02 07:12:20;;;;;;;42.20;23.40;;;16.10;99.90;;;;;;5054435;28;20044;-59
2023/10/02 07:14:48;;;;;;;27.35;19.08;;;16.10;99.90;;;;;;5055275;28;20044;-59
2023/10/02 07:17:18;;;;;;;35.17;20.67;;;16.20;99.90;;;;;;5055709;28;20044;-61
2023/10/02 07:19:51;;;;;;;36.15;20.65;;;16.30;99.90;;;;;;5054039;28;20032;-64
2023/10/02 07:22:18;;;;;;;32.42;19.73;;;16.20;99.90;;;;;;5058986;28;20080;-62
2023/10/02 07:24:46;;;;;;;36.33;23.02;;;16.30;99.90;;;;;;5050729;28;20448;-62
2023/10/02 07:27:28;;;;;;;35.15;20.02;;;16.30;99.90;;;;;;5047405;28;20485;-62
2023/10/02 07:29:58;;;;;;;29.33;19.40;;;16.60;99.90;;;;;;5058902;28;20044;-62
2023/10/02 07:32:29;;;;;;;31.17;21.23;;;16.60;99.90;;;;;;5052100;28;20045;-62
2023/10/02 07:35:09;;;;;;;36.83;20.77;;;16.60;99.90;;;;;;5040460;28;20041;-62
2023/10/02 07:37:35;;;;;;;33.42;20.27;;;16.80;99.90;;;;;;5047752;28;20075;-62
2023/10/02 07:40:01;;;;;;;33.35;21.58;;;16.70;99.90;;;;;;5054365;28;20044;-62
2023/10/02 07:42:29;;;;;;;39.75;22.25;;;16.90;99.90;;;;;;5070958;28;20489;-62
2023/10/02 07:50:33;;;;;;;31.73;20.13;;;16.90;99.90;;;;;;5052919;28;20067;-62
2023/10/02 07:53:06;;;;;;;32.50;21.67;;;16.90;99.90;;;;;;5052762;28;20291;-62
2023/10/02 07:55:39;;;;;;;43.08;25.23;;;17.10;99.90;;;;;;5053878;28;20045;-62
2023/10/02 07:58:08;;;;;;;32.17;20.48;;;17.10;99.90;;;;;;5036777;28;20046;-62
2023/10/02 08:00:38;;;;;;;33.92;20.65;;;17.20;99.90;;;;;;5053638;28;20037;-62
2023/10/02 08:03:31;;;;;;;33.50;21.13;;;17.30;99.90;;;;;;5045734;28;20095;-62
2023/10/02 08:06:00;;;;;;;34.03;21.25;;;17.40;99.90;;;;;;5035610;28;20041;-63
2023/10/02 08:08:35;;;;;;;32.70;20.83;;;17.40;99.90;;;;;;5053842;28;20032;-62
2023/10/02 08:11:06;;;;;;;34.20;20.92;;;17.50;99.90;;;;;;5054755;28;20127;-63
2023/10/02 08:13:35;;;;;;;31.08;20.70;;;17.50;99.90;;;;;;5053220;28;20102;-63
2023/10/02 08:16:14;;;;;;;34.67;21.13;;;17.50;99.90;;;;;;5033654;28;20085;-63
2023/10/02 08:21:46;;;;;;;33.63;21.17;;;17.70;99.90;;;;;;5073135;28;20044;-63
2023/10/02 08:24:13;;;;;;;35.13;20.52;;;17.80;99.90;;;;;;5065808;28;20047;-62
2023/10/02 08:26:46;;;;;;;32.38;20.55;;;17.90;99.90;;;;;;5069969;28;20040;-62
2023/10/02 08:29:13;;;;;;;35.50;21.05;;;17.80;99.90;;;;;;5049940;28;20127;-59
2023/10/02 08:31:43;;;;;;;40.58;21.83;;;17.90;99.90;;;;;;5073359;28;20124;-62
2023/10/02 08:34:24;;;;;;;33.13;19.63;;;18.00;99.90;;;;;;5073498;28;20041;-62
2023/10/02 08:37:07;;;;;;;34.55;21.23;;;18.10;99.90;;;;;;5072632;28;20052;-63
2023/10/02 08:39:39;;;;;;;31.73;20.40;;;18.10;99.90;;;;;;5066396;28;20051;-60
2023/10/02 08:42:13;;;;;;;32.80;20.73;;;18.00;99.90;;;;;;5032408;28;20059;-60
2023/10/02 08:44:41;;;;;;;;;;;18.20;99.90;;;;;;5034800;28;20063;-63
2023/10/02 08:47:24;;;;;;;40.83;23.45;;;18.10;99.90;;;;;;5072957;28;19924;-62
2023/10/02 08:50:05;;;;;;;36.33;22.08;;;18.20;99.90;;;;;;5052081;28;20060;-63
2023/10/02 08:52:48;;;;;;;33.67;20.13;;;18.20;99.90;;;;;;5051577;28;20367;-62
2023/10/02 08:55:34;;;;;;;35.80;20.40;;;18.30;99.90;;;;;;5040410;28;20445;-63
2023/10/02 08:58:15;;;;;;;35.00;21.25;;;18.30;99.90;;;;;;5051280;28;20098;-62
2023/10/02 09:03:47;;;;;;;36.85;21.10;;;18.40;99.90;;;;;;5052675;28;20037;-62
2023/10/02 09:06:32;;;;;;;43.50;25.08;;;18.40;99.90;;;;;;5045183;28;20035;-62
2023/10/02 09:11:41;;;;;;;32.58;19.77;;;18.60;99.90;;;;;;5052721;28;20057;-59
2023/10/02 09:19:53;;;;;;;;;;;18.70;99.90;;;;;;5086675;28;20080;-62
2023/10/02 09:22:23;;;;;;;37.00;21.38;;;18.70;99.90;;;;;;5055182;28;20262;-59
2023/10/02 09:24:59;;;;;;;39.22;22.77;;;18.70;99.90;;;;;;5067110;28;20041;-60
2023/10/02 09:27:38;;;;;;;37.33;22.35;;;18.70;99.90;;;;;;5052345;28;20195;-63
2023/10/02 09:32:49;;;;;;;33.80;21.58;;;18.80;99.90;;;;;;5078135;28;20056;-63
2023/10/02 09:35:30;;;;;;;33.45;21.10;;;18.90;99.90;;;;;;5063073;28;20102;-63
2023/10/02 09:38:06;;;;;;;33.15;22.73;;;19.10;99.90;;;;;;5069203;28;20470;-63
2023/10/02 09:40:54;;;;;;;32.15;19.83;;;19.20;99.90;;;;;;5061023;28;20478;-60
2023/10/02 09:43:22;;;;;;;33.75;18.63;;;19.40;99.90;;;;;;5052742;28;20041;-61
2023/10/02 09:45:49;;;;;;;35.97;18.73;;;19.50;99.90;;;;;;5060929;28;20044;-60
2023/10/02 09:48:53;;;;;;;32.47;19.58;;;19.60;99.90;;;;;;5064485;28;20044;-60
2023/10/02 09:51:28;;;;;;;28.83;19.33;;;19.70;99.90;;;;;;5053740;28;20133;-62
2023/10/02 09:54:05;;;;;;;29.48;18.88;;;19.60;99.90;;;;;;5051735;28;20071;-61
2023/10/02 09:56:52;;;;;;;34.55;19.55;;;19.60;99.90;;;;;;5071192;28;20097;-60
2023/10/02 09:59:22;;;;;;;32.45;18.90;;;19.70;99.90;;;;;;5054600;28;20040;-62
2023/10/02 10:02:07;;;;;;;31.85;19.17;;;19.60;99.90;;;;;;5071488;28;20036;-62
2023/10/02 10:07:51;;;;;;;25.92;17.42;;;19.80;99.90;;;;;;5093481;28;20044;-60
2023/10/02 10:10:28;;;;;;;27.45;17.25;;;19.80;99.90;;;;;;5069167;28;20616;-60
2023/10/02 10:13:09;;;;;;;25.45;16.27;;;20.00;99.90;;;;;;5052070;28;20111;-63
2023/10/02 10:15:37;;;;;;;26.55;16.60;;;20.00;99.90;;;;;;5054531;28;20060;-59
2023/10/02 10:18:12;;;;;;;27.30;14.90;;;20.00;99.90;;;;;;5051970;28;20109;-60
2023/10/02 10:20:38;;;;;;;32.55;18.92;;;20.00;99.90;;;;;;5070265;28;20048;-63
2023/10/02 10:23:31;;;;;;;29.67;17.92;;;20.20;99.90;;;;;;5073056;28;20044;-63
2023/10/02 10:26:07;;;;;;;30.67;16.55;;;20.20;99.90;;;;;;5071153;28;20090;-63
2023/10/02 10:28:50;;;;;;;28.40;15.65;;;20.40;99.90;;;;;;5063129;28;20528;-62
2023/10/02 10:31:36;;;;;;;26.30;15.75;;;20.50;99.90;;;;;;5057238;28;20039;-60
2023/10/02 10:34:05;;;;;;;25.00;15.05;;;20.50;99.90;;;;;;5102603;28;20043;-60
2023/10/02 10:36:36;;;;;;;24.67;15.07;;;20.50;99.90;;;;;;5050309;28;20068;-63
2023/10/02 10:39:30;;;;;;;24.65;14.77;;;20.50;99.90;;;;;;5060658;28;20036;-63
2023/10/02 10:42:00;;;;;;;26.42;16.80;;;20.50;99.90;;;;;;5070568;28;20123;-63
2023/10/02 10:44:32;;;;;;;25.98;15.65;;;20.50;99.90;;;;;;5068535;28;20040;-63
2023/10/02 10:47:03;;;;;;;22.88;14.60;;;20.60;99.90;;;;;;5063441;28;20052;-61
2023/10/02 10:50:11;;;;;;;25.60;16.85;;;20.60;99.90;;;;;;5050450;28;20068;-60
2023/10/02 10:52:39;;;;;;;27.35;17.35;;;20.60;99.90;;;;;;5059534;28;20048;-63
2023/10/02 10:55:32;;;;;;;28.60;16.10;;;20.50;99.90;;;;;;5071288;28;20382;-61
2023/10/02 10:57:58;;;;;;;29.25;17.23;;;20.60;99.90;;;;;;5067954;28;20071;-60
2023/10/02 11:00:23;;;;;;;24.65;15.27;;;20.50;99.90;;;;;;5050204;28;20033;-58
2023/10/02 11:03:14;;;;;;;24.08;16.05;;;20.60;99.90;;;;;;5052403;28;20120;-61
2023/10/02 11:05:41;;;;;;;23.10;15.95;;;20.70;99.90;;;;;;5065165;28;20116;-60
2023/10/02 11:08:23;;;;;;;26.20;14.77;;;20.60;99.90;;;;;;5054358;28;20049;-62
2023/10/02 11:11:04;;;;;;;23.63;15.00;;;20.60;99.90;;;;;;5053389;28;20561;-59
2023/10/02 11:16:39;;;;;;;26.33;15.75;;;20.70;99.90;;;;;;5037029;28;20048;-62
2023/10/02 11:19:21;;;;;;;26.08;15.52;;;20.80;99.90;;;;;;5072097;28;20102;-63
2023/10/02 11:22:21;;;;;;;27.25;15.30;;;20.70;99.90;;;;;;5070805;28;20036;-60
2023/10/02 11:24:53;;;;;;;19.90;13.70;;;20.90;99.90;;;;;;5070432;28;20055;-59
2023/10/02 11:27:19;;;;;;;23.48;15.65;;;20.90;99.90;;;;;;5070569;28;20040;-60
2023/10/02 11:30:02;;;;;;;22.38;15.50;;;21.00;99.90;;;;;;5070675;28;20511;-59
2023/10/02 11:32:54;;;;;;;19.90;13.77;;;20.90;99.90;;;;;;5070924;28;20515;-59
2023/10/02 11:35:21;;;;;;;22.08;14.35;;;20.90;99.90;;;;;;5070532;28;20545;-59
2023/10/02 11:37:48;;;;;;;25.23;14.85;;;21.00;99.90;;;;;;5070081;28;20044;-59
2023/10/02 11:40:14;;;;;;;22.58;14.40;;;21.00;99.90;;;;;;5070611;28;20052;-59
2023/10/02 11:42:40;;;;;;;23.75;14.90;;;21.00;99.90;;;;;;5071638;28;20033;-60
2023/10/02 11:45:07;;;;;;;24.33;15.77;;;21.00;99.90;;;;;;5070184;28;20044;-60
2023/10/02 11:47:34;;;;;;;25.00;15.02;;;21.00;99.90;;;;;;5071466;28;20044;-59
2023/10/02 11:50:00;;;;;;;27.00;15.45;;;21.10;99.90;;;;;;5070710;28;20386;-59
2023/10/02 11:52:26;;;;;;;18.63;12.73;;;21.10;99.90;;;;;;5069655;28;20049;-59
2023/10/02 11:54:52;;;;;;;23.85;12.63;;;21.10;99.90;;;;;;5070597;28;20036;-59
2023/10/02 11:57:18;;;;;;;21.80;13.88;;;21.20;99.90;;;;;;5070556;28;20481;-59
2023/10/02 11:59:47;;;;;;;21.63;13.45;;;21.20;99.90;;;;;;5069677;28;20209;-60
2023/10/02 12:02:17;;;;;;;22.50;14.30;;;21.20;99.90;;;;;;5069943;28;20050;-59
2023/10/02 12:04:44;;;;;;;20.65;15.35;;;21.30;99.90;;;;;;5070353;28;20120;-60
2023/10/02 12:07:10;;;;;;;24.73;14.00;;;21.30;99.90;;;;;;5069528;28;20051;-60
2023/10/02 12:09:36;;;;;;;24.85;14.15;;;21.30;99.90;;;;;;5070442;28;20071;-60
2023/10/02 12:12:02;;;;;;;20.08;13.30;;;21.20;99.90;;;;;;5071884;28;20040;-60
2023/10/02 12:14:29;;;;;;;22.98;14.23;;;21.30;99.90;;;;;;5069245;28;20471;-60
2023/10/02 12:16:57;;;;;;;19.77;13.38;;;21.30;99.90;;;;;;5070735;28;20075;-60
2023/10/02 12:19:31;;;;;;;22.45;13.45;;;21.30;99.90;;;;;;5070118;28;20123;-60
2023/10/02 12:21:57;;;;;;;23.20;14.52;;;21.30;99.90;;;;;;5070868;28;20507;-60
2023/10/02 12:24:22;;;;;;;20.88;13.35;;;21.30;99.90;;;;;;5053432;28;20037;-60
2023/10/02 12:26:49;;;;;;;25.88;15.57;;;21.30;99.90;;;;;;5072964;28;20067;-60
2023/10/02 12:29:15;;;;;;;23.65;14.02;;;21.40;99.90;;;;;;5074186;28;20068;-60
2023/10/02 12:31:42;;;;;;;28.27;16.10;;;21.40;99.90;;;;;;5075186;28;20089;-59
2023/10/02 12:34:08;;;;;;;23.13;15.48;;;21.30;99.90;;;;;;5073121;28;20382;-60
2023/10/02 12:36:33;;;;;;;22.73;15.40;;;21.30;99.90;;;;;;5073666;28;20051;-60
2023/10/02 12:38:59;;;;;;;26.90;17.55;;;21.30;99.90;;;;;;5073980;28;20037;-59
2023/10/02 12:41:30;;;;;;;27.38;17.52;;;21.20;99.90;;;;;;5073239;28;20044;-59
2023/10/02 12:43:56;;;;;;;29.35;17.02;;;21.20;99.90;;;;;;5073719;28;20395;-60
2023/10/02 12:46:23;;;;;;;26.10;16.48;;;21.10;99.90;;;;;;5073683;28;20127;-64
2023/10/02 12:48:50;;;;;;;27.15;16.55;;;21.10;99.90;;;;;;5072963;28;20541;-64
2023/10/02 12:51:17;;;;;;;25.48;17.25;;;21.10;99.90;;;;;;5073087;28;20476;-64
2023/10/02 12:53:43;;;;;;;26.20;17.08;;;21.00;99.90;;;;;;5073719;28;20052;-64
2023/10/02 12:56:21;;;;;;;26.15;17.20;;;21.00;99.90;;;;;;5072752;28;20041;-64
2023/10/02 12:58:48;;;;;;;29.63;18.55;;;21.10;99.90;;;;;;5073253;28;20048;-64
2023/10/02 13:01:16;;;;;;;29.65;18.83;;;21.10;99.90;;;;;;5073221;28;20055;-64
2023/10/02 13:03:44;;;;;;;26.75;17.35;;;21.10;99.90;;;;;;5072559;28;20089;-64
2023/10/02 13:06:15;;;;;;;31.08;19.17;;;21.20;99.90;;;;;;5056621;28;20047;-64
2023/10/02 13:08:44;;;;;;;24.33;18.00;;;21.20;99.90;;;;;;5073357;28;20198;-64
2023/10/02 13:11:18;;;;;;;27.55;16.80;;;21.20;99.90;;;;;;5055518;28;20045;-64
2023/10/02 13:13:46;;;;;;;25.70;17.73;;;21.20;99.90;;;;;;5073310;28;20501;-64
2023/10/02 13:16:13;;;;;;;25.45;16.63;;;21.30;99.90;;;;;;5072466;28;20501;-67
2023/10/02 13:18:40;;;;;;;30.60;16.58;;;21.30;99.90;;;;;;5072599;28;20431;-64
2023/10/02 13:21:09;;;;;;;28.00;18.00;;;21.20;99.90;;;;;;5056548;28;20111;-65
2023/10/02 13:23:36;;;;;;;30.92;15.82;;;21.30;99.90;;;;;;5073364;28;20400;-64
2023/10/02 13:26:06;;;;;;;27.00;16.77;;;21.30;99.90;;;;;;5072828;28;20048;-65
2023/10/02 13:28:34;;;;;;;24.58;16.60;;;21.30;99.90;;;;;;5072657;28;20040;-64
2023/10/02 13:31:12;;;;;;;27.00;15.93;;;21.30;99.90;;;;;;5072419;28;20048;-64
2023/10/02 13:33:40;;;;;;;28.80;17.77;;;21.30;99.90;;;;;;5072660;28;20040;-64
2023/10/02 13:36:07;;;;;;;30.20;19.00;;;21.30;99.90;;;;;;5072776;28;20397;-64
2023/10/02 13:38:35;;;;;;;25.30;18.05;;;21.20;99.90;;;;;;5070681;28;20110;-64
2023/10/02 13:41:11;;;;;;;25.17;16.35;;;21.20;99.90;;;;;;5072983;28;20124;-64
2023/10/02 13:43:41;;;;;;;30.42;19.05;;;21.10;99.90;;;;;;5072471;28;20040;-64
2023/10/02 13:46:11;;;;;;;24.83;16.77;;;21.10;99.90;;;;;;5071758;28;20040;-64
2023/10/02 13:48:41;;;;;;;27.30;18.90;;;21.10;99.90;;;;;;5073583;28;20044;-64
2023/10/02 13:51:08;;;;;;;25.67;18.50;;;21.10;99.90;;;;;;5072486;28;20057;-64
2023/10/02 13:53:34;;;;;;;28.15;17.83;;;21.10;99.90;;;;;;5071476;28;20114;-64
2023/10/02 13:56:16;;;;;;;26.83;16.35;;;21.10;99.90;;;;;;5072439;28;20091;-64
2023/10/02 13:58:49;;;;;;;26.23;16.48;;;21.10;99.90;;;;;;5054915;28;20063;-64
2023/10/02 14:01:19;;;;;;;30.65;18.52;;;21.10;99.90;;;;;;5072161;28;20083;-65
2023/10/02 14:03:49;;;;;;;24.70;19.35;;;21.10;99.90;;;;;;5073493;28;20106;-64
2023/10/02 14:06:16;;;;;;;28.20;18.52;;;21.10;99.90;;;;;;5071504;28;20477;-64
2023/10/02 14:08:42;;;;;;;27.77;17.77;;;21.10;99.90;;;;;;5071439;28;20040;-64